الصفحة الرئيسية
METAR-TAF:

METAR-TAF

مطار :

NWS Office

بونبي, مايكرونيزيا

دائرة عرض: 06-58N, خط طول: 158-13E, ارتفاع: 39 متر

مراقبة الطقس الحالي

تاريخ ووقت الإصدار 1ساعة و 4 دقيقة قبل الساعة 14:50UTC
ريح 3 عقدة من الجنوب الشرقي
درجة الحرارة 26°درجة مئوية
الرطوبة 94%
ضغط 1011 hPa
الرؤية: 24.1 كم
غيوم متفرقة على ارتفاع 1800 قدم
غيوم مفككة على ارتفاع 13000 قدم
ملبد بالغيوم على ارتفاع 30000 قدم

METAR: PTTP 111450Z 14003KT 15SM SCT018 BKN130 OVC300 26/25 A2984 RMK SLP105 60003 8/171 T02560247 57017

زمن: 02:54 (15:54 UTC)


TAF: مفقودة

أرصاد الطقس والتوقعات من أكثر من 4000 مطار (تقارير الطقس للمطار METAR والتنبؤ بالطقس بالمطارTAF).

المحطات المتاحة هي النقط الصفراء والحمراء على الخريطة.

حرك المؤشر فوق النقطة لمعرفة اسم المحطة.

ثم انقر لمعرفة أرصاد وتوقعات الطقس.

لتغيير الخارطة: اضغط على الأزرار الخضراء مع رمز الصليب الأسود للتكبير. على الزر الأخضر مع شرطة للتصغير، أو على الأسهم الخضراء للخرائط المجاورة.


METAR-TAF: